sensor_id;sensor_type;location;lat;lon;timestamp;P1;durP1;ratioP1;P2;durP2;ratioP2
68858;SDS011;55864;49.238;8.092;2023-08-12T00:00:33;7.03;;;3.30;;
68858;SDS011;55864;49.238;8.092;2023-08-12T00:02:33;5.90;;;3.00;;
68858;SDS011;55864;49.238;8.092;2023-08-12T00:04:34;7.78;;;3.65;;
68858;SDS011;55864;49.238;8.092;2023-08-12T00:06:34;6.68;;;3.30;;
68858;SDS011;55864;49.238;8.092;2023-08-12T00:08:35;6.00;;;3.30;;
68858;SDS011;55864;49.238;8.092;2023-08-12T00:10:35;8.35;;;3.40;;
68858;SDS011;55864;49.238;8.092;2023-08-12T00:12:36;6.18;;;3.33;;
68858;SDS011;55864;49.238;8.092;2023-08-12T00:14:37;6.30;;;3.30;;
68858;SDS011;55864;49.238;8.092;2023-08-12T00:16:39;7.25;;;3.30;;
68858;SDS011;55864;49.238;8.092;2023-08-12T00:18:40;7.10;;;3.60;;
68858;SDS011;55864;49.238;8.092;2023-08-12T00:20:40;8.75;;;3.50;;
68858;SDS011;55864;49.238;8.092;2023-08-12T00:22:41;7.75;;;3.20;;
68858;SDS011;55864;49.238;8.092;2023-08-12T00:24:41;8.13;;;3.40;;
68858;SDS011;55864;49.238;8.092;2023-08-12T00:26:42;6.82;;;3.60;;
68858;SDS011;55864;49.238;8.092;2023-08-12T00:28:42;7.13;;;3.58;;
68858;SDS011;55864;49.238;8.092;2023-08-12T00:30:43;6.30;;;3.53;;
68858;SDS011;55864;49.238;8.092;2023-08-12T00:32:45;7.80;;;3.47;;
68858;SDS011;55864;49.238;8.092;2023-08-12T00:34:45;8.90;;;3.50;;
68858;SDS011;55864;49.238;8.092;2023-08-12T00:36:46;6.97;;;3.25;;
68858;SDS011;55864;49.238;8.092;2023-08-12T00:38:46;6.65;;;3.42;;
68858;SDS011;55864;49.238;8.092;2023-08-12T00:40:47;7.50;;;3.75;;
68858;SDS011;55864;49.238;8.092;2023-08-12T00:42:47;7.10;;;3.65;;
68858;SDS011;55864;49.238;8.092;2023-08-12T00:44:48;8.32;;;3.97;;
68858;SDS011;55864;49.238;8.092;2023-08-12T00:46:48;7.78;;;3.85;;
68858;SDS011;55864;49.238;8.092;2023-08-12T00:48:51;7.40;;;3.63;;
68858;SDS011;55864;49.238;8.092;2023-08-12T00:50:51;8.02;;;3.60;;
68858;SDS011;55864;49.238;8.092;2023-08-12T00:52:52;10.18;;;3.67;;
68858;SDS011;55864;49.238;8.092;2023-08-12T00:54:53;7.95;;;3.70;;
68858;SDS011;55864;49.238;8.092;2023-08-12T00:56:54;10.30;;;3.63;;
68858;SDS011;55864;49.238;8.092;2023-08-12T00:58:55;6.50;;;3.60;;
68858;SDS011;55864;49.238;8.092;2023-08-12T01:00:55;7.10;;;4.05;;
68858;SDS011;55864;49.238;8.092;2023-08-12T01:02:56;6.70;;;3.55;;
68858;SDS011;55864;49.238;8.092;2023-08-12T01:04:59;7.55;;;3.95;;
68858;SDS011;55864;49.238;8.092;2023-08-12T01:06:59;7.90;;;3.90;;
68858;SDS011;55864;49.238;8.092;2023-08-12T01:09:02;11.15;;;4.05;;
68858;SDS011;55864;49.238;8.092;2023-08-12T01:11:04;9.05;;;3.63;;
68858;SDS011;55864;49.238;8.092;2023-08-12T01:13:13;7.30;;;3.90;;
68858;SDS011;55864;49.238;8.092;2023-08-12T01:15:24;7.05;;;3.50;;
68858;SDS011;55864;49.238;8.092;2023-08-12T01:17:25;7.88;;;3.60;;
68858;SDS011;55864;49.238;8.092;2023-08-12T01:19:29;7.65;;;3.83;;
68858;SDS011;55864;49.238;8.092;2023-08-12T01:21:34;6.80;;;3.60;;
68858;SDS011;55864;49.238;8.092;2023-08-12T01:23:42;6.70;;;3.97;;
68858;SDS011;55864;49.238;8.092;2023-08-12T01:25:43;7.28;;;3.65;;
68858;SDS011;55864;49.238;8.092;2023-08-12T01:27:44;6.95;;;3.58;;
68858;SDS011;55864;49.238;8.092;2023-08-12T01:29:45;8.80;;;4.40;;
68858;SDS011;55864;49.238;8.092;2023-08-12T01:31:50;6.80;;;3.88;;
68858;SDS011;55864;49.238;8.092;2023-08-12T01:33:57;10.25;;;4.00;;
68858;SDS011;55864;49.238;8.092;2023-08-12T01:36:04;7.95;;;3.53;;
68858;SDS011;55864;49.238;8.092;2023-08-12T01:38:09;7.75;;;3.67;;
68858;SDS011;55864;49.238;8.092;2023-08-12T01:40:12;7.10;;;3.72;;
68858;SDS011;55864;49.238;8.092;2023-08-12T01:42:15;6.78;;;3.63;;
68858;SDS011;55864;49.238;8.092;2023-08-12T01:44:18;6.13;;;3.45;;
68858;SDS011;55864;49.238;8.092;2023-08-12T01:46:19;6.82;;;3.65;;
68858;SDS011;55864;49.238;8.092;2023-08-12T01:48:21;6.25;;;3.53;;
68858;SDS011;55864;49.238;8.092;2023-08-12T01:50:22;6.88;;;3.80;;
68858;SDS011;55864;49.238;8.092;2023-08-12T01:52:22;7.55;;;3.67;;
68858;SDS011;55864;49.238;8.092;2023-08-12T01:54:23;7.00;;;3.88;;
68858;SDS011;55864;49.238;8.092;2023-08-12T01:56:25;6.43;;;3.60;;
68858;SDS011;55864;49.238;8.092;2023-08-12T01:58:25;9.48;;;3.65;;
68858;SDS011;55864;49.238;8.092;2023-08-12T02:00:26;6.80;;;3.60;;
68858;SDS011;55864;49.238;8.092;2023-08-12T02:02:26;7.68;;;3.92;;
68858;SDS011;55864;49.238;8.092;2023-08-12T02:04:27;7.72;;;3.50;;
68858;SDS011;55864;49.238;8.092;2023-08-12T02:06:27;7.60;;;3.72;;
68858;SDS011;55864;49.238;8.092;2023-08-12T02:08:28;7.80;;;3.72;;
68858;SDS011;55864;49.238;8.092;2023-08-12T02:10:28;7.90;;;3.78;;
68858;SDS011;55864;49.238;8.092;2023-08-12T02:12:30;7.13;;;3.55;;
68858;SDS011;55864;49.238;8.092;2023-08-12T02:14:31;7.43;;;3.60;;
68858;SDS011;55864;49.238;8.092;2023-08-12T02:16:31;10.32;;;3.80;;
68858;SDS011;55864;49.238;8.092;2023-08-12T02:18:32;6.53;;;3.15;;
68858;SDS011;55864;49.238;8.092;2023-08-12T02:20:32;7.03;;;3.58;;
68858;SDS011;55864;49.238;8.092;2023-08-12T02:22:35;6.40;;;3.63;;
68858;SDS011;55864;49.238;8.092;2023-08-12T02:24:35;8.68;;;3.30;;
68858;SDS011;55864;49.238;8.092;2023-08-12T02:26:37;10.20;;;3.85;;
68858;SDS011;55864;49.238;8.092;2023-08-12T02:28:38;9.45;;;3.60;;
68858;SDS011;55864;49.238;8.092;2023-08-12T02:30:41;9.52;;;3.67;;
68858;SDS011;55864;49.238;8.092;2023-08-12T02:32:43;8.48;;;3.72;;
68858;SDS011;55864;49.238;8.092;2023-08-12T02:34:44;7.60;;;3.70;;
68858;SDS011;55864;49.238;8.092;2023-08-12T02:36:44;6.40;;;3.30;;
68858;SDS011;55864;49.238;8.092;2023-08-12T02:38:45;6.30;;;3.55;;
68858;SDS011;55864;49.238;8.092;2023-08-12T02:40:47;7.03;;;3.45;;
68858;SDS011;55864;49.238;8.092;2023-08-12T02:42:48;8.57;;;3.90;;
68858;SDS011;55864;49.238;8.092;2023-08-12T02:44:49;9.63;;;3.50;;
68858;SDS011;55864;49.238;8.092;2023-08-12T02:46:50;8.70;;;3.75;;
68858;SDS011;55864;49.238;8.092;2023-08-12T02:48:51;9.10;;;3.53;;
68858;SDS011;55864;49.238;8.092;2023-08-12T02:50:51;9.13;;;3.40;;
68858;SDS011;55864;49.238;8.092;2023-08-12T02:52:52;8.27;;;3.53;;
68858;SDS011;55864;49.238;8.092;2023-08-12T02:54:52;8.02;;;4.00;;
68858;SDS011;55864;49.238;8.092;2023-08-12T02:56:53;7.43;;;3.72;;
68858;SDS011;55864;49.238;8.092;2023-08-12T02:58:53;8.13;;;3.75;;
68858;SDS011;55864;49.238;8.092;2023-08-12T03:00:55;7.72;;;3.88;;
68858;SDS011;55864;49.238;8.092;2023-08-12T03:02:56;8.43;;;3.90;;
68858;SDS011;55864;49.238;8.092;2023-08-12T03:04:56;11.55;;;4.00;;
68858;SDS011;55864;49.238;8.092;2023-08-12T03:06:57;8.52;;;3.65;;
68858;SDS011;55864;49.238;8.092;2023-08-12T03:08:57;7.65;;;3.90;;
68858;SDS011;55864;49.238;8.092;2023-08-12T03:10:58;9.07;;;3.97;;
68858;SDS011;55864;49.238;8.092;2023-08-12T03:12:59;8.73;;;3.95;;
68858;SDS011;55864;49.238;8.092;2023-08-12T03:15:00;7.00;;;3.63;;
68858;SDS011;55864;49.238;8.092;2023-08-12T03:17:03;8.25;;;3.85;;
68858;SDS011;55864;49.238;8.092;2023-08-12T03:21:05;7.82;;;3.55;;
68858;SDS011;55864;49.238;8.092;2023-08-12T03:23:06;8.43;;;3.85;;
68858;SDS011;55864;49.238;8.092;2023-08-12T03:25:07;7.25;;;4.07;;
68858;SDS011;55864;49.238;8.092;2023-08-12T03:27:08;10.50;;;4.00;;
68858;SDS011;55864;49.238;8.092;2023-08-12T03:29:09;7.47;;;3.50;;
68858;SDS011;55864;49.238;8.092;2023-08-12T03:31:12;7.63;;;3.60;;
68858;SDS011;55864;49.238;8.092;2023-08-12T03:33:14;7.60;;;3.50;;
68858;SDS011;55864;49.238;8.092;2023-08-12T03:35:15;9.00;;;3.67;;
68858;SDS011;55864;49.238;8.092;2023-08-12T03:37:16;8.13;;;4.13;;
68858;SDS011;55864;49.238;8.092;2023-08-12T03:39:17;9.55;;;4.18;;
68858;SDS011;55864;49.238;8.092;2023-08-12T03:41:18;7.53;;;3.60;;
68858;SDS011;55864;49.238;8.092;2023-08-12T03:43:20;9.63;;;4.03;;
68858;SDS011;55864;49.238;8.092;2023-08-12T03:45:22;8.02;;;4.03;;
68858;SDS011;55864;49.238;8.092;2023-08-12T03:47:22;9.13;;;3.90;;
68858;SDS011;55864;49.238;8.092;2023-08-12T03:49:24;8.35;;;3.80;;
68858;SDS011;55864;49.238;8.092;2023-08-12T03:51:25;9.38;;;4.00;;
68858;SDS011;55864;49.238;8.092;2023-08-12T03:53:26;7.53;;;3.95;;
68858;SDS011;55864;49.238;8.092;2023-08-12T03:55:29;7.70;;;3.70;;
68858;SDS011;55864;49.238;8.092;2023-08-12T03:57:30;7.28;;;3.75;;
68858;SDS011;55864;49.238;8.092;2023-08-12T03:59:31;7.25;;;3.75;;
68858;SDS011;55864;49.238;8.092;2023-08-12T04:01:31;9.77;;;3.88;;
68858;SDS011;55864;49.238;8.092;2023-08-12T04:03:32;7.60;;;3.63;;
68858;SDS011;55864;49.238;8.092;2023-08-12T04:05:34;8.35;;;4.20;;
68858;SDS011;55864;49.238;8.092;2023-08-12T04:07:36;9.57;;;4.10;;
68858;SDS011;55864;49.238;8.092;2023-08-12T04:09:37;8.82;;;4.15;;
68858;SDS011;55864;49.238;8.092;2023-08-12T04:11:37;9.40;;;4.18;;
68858;SDS011;55864;49.238;8.092;2023-08-12T04:13:37;8.57;;;4.13;;
68858;SDS011;55864;49.238;8.092;2023-08-12T04:15:38;9.23;;;4.03;;
68858;SDS011;55864;49.238;8.092;2023-08-12T04:17:39;7.38;;;3.75;;
68858;SDS011;55864;49.238;8.092;2023-08-12T04:19:40;8.35;;;3.92;;
68858;SDS011;55864;49.238;8.092;2023-08-12T04:21:42;7.80;;;4.13;;
68858;SDS011;55864;49.238;8.092;2023-08-12T04:23:42;8.05;;;3.70;;
68858;SDS011;55864;49.238;8.092;2023-08-12T04:25:43;8.10;;;4.13;;
68858;SDS011;55864;49.238;8.092;2023-08-12T04:27:45;8.68;;;3.70;;
68858;SDS011;55864;49.238;8.092;2023-08-12T04:29:45;7.75;;;3.97;;
68858;SDS011;55864;49.238;8.092;2023-08-12T04:31:47;8.48;;;4.18;;
68858;SDS011;55864;49.238;8.092;2023-08-12T04:33:48;7.88;;;3.92;;
68858;SDS011;55864;49.238;8.092;2023-08-12T04:35:48;8.02;;;3.88;;
68858;SDS011;55864;49.238;8.092;2023-08-12T04:37:52;7.90;;;3.75;;
68858;SDS011;55864;49.238;8.092;2023-08-12T04:39:53;8.57;;;4.25;;
68858;SDS011;55864;49.238;8.092;2023-08-12T04:41:54;7.22;;;4.40;;
68858;SDS011;55864;49.238;8.092;2023-08-12T04:43:55;9.50;;;4.30;;
68858;SDS011;55864;49.238;8.092;2023-08-12T04:46:00;8.10;;;4.10;;
68858;SDS011;55864;49.238;8.092;2023-08-12T04:48:00;8.40;;;4.18;;
68858;SDS011;55864;49.238;8.092;2023-08-12T04:50:02;7.03;;;3.80;;
68858;SDS011;55864;49.238;8.092;2023-08-12T04:52:04;8.93;;;4.20;;
68858;SDS011;55864;49.238;8.092;2023-08-12T04:54:06;7.60;;;4.05;;
68858;SDS011;55864;49.238;8.092;2023-08-12T04:56:07;7.20;;;3.78;;
68858;SDS011;55864;49.238;8.092;2023-08-12T04:58:08;7.07;;;4.15;;
68858;SDS011;55864;49.238;8.092;2023-08-12T05:00:08;8.68;;;4.43;;
68858;SDS011;55864;49.238;8.092;2023-08-12T05:02:10;7.53;;;4.07;;
68858;SDS011;55864;49.238;8.092;2023-08-12T05:04:10;9.55;;;4.03;;
68858;SDS011;55864;49.238;8.092;2023-08-12T05:06:11;8.38;;;4.38;;
68858;SDS011;55864;49.238;8.092;2023-08-12T05:08:12;11.50;;;4.32;;
68858;SDS011;55864;49.238;8.092;2023-08-12T05:10:14;7.32;;;4.10;;
68858;SDS011;55864;49.238;8.092;2023-08-12T05:12:15;9.68;;;4.30;;
68858;SDS011;55864;49.238;8.092;2023-08-12T05:14:15;9.55;;;4.57;;
68858;SDS011;55864;49.238;8.092;2023-08-12T05:16:16;7.63;;;4.38;;
68858;SDS011;55864;49.238;8.092;2023-08-12T05:18:16;12.43;;;6.60;;
68858;SDS011;55864;49.238;8.092;2023-08-12T05:20:17;8.93;;;4.97;;
68858;SDS011;55864;49.238;8.092;2023-08-12T05:22:17;8.43;;;4.40;;
68858;SDS011;55864;49.238;8.092;2023-08-12T05:24:19;9.95;;;5.25;;
68858;SDS011;55864;49.238;8.092;2023-08-12T05:26:21;8.88;;;5.63;;
68858;SDS011;55864;49.238;8.092;2023-08-12T05:28:21;8.68;;;5.00;;
68858;SDS011;55864;49.238;8.092;2023-08-12T05:30:22;9.15;;;4.70;;
68858;SDS011;55864;49.238;8.092;2023-08-12T05:32:22;7.25;;;4.32;;
68858;SDS011;55864;49.238;8.092;2023-08-12T05:34:23;7.43;;;4.28;;
68858;SDS011;55864;49.238;8.092;2023-08-12T05:36:23;7.60;;;4.30;;
68858;SDS011;55864;49.238;8.092;2023-08-12T05:38:24;9.13;;;4.68;;
68858;SDS011;55864;49.238;8.092;2023-08-12T05:40:24;7.97;;;4.43;;
68858;SDS011;55864;49.238;8.092;2023-08-12T05:42:26;7.40;;;4.30;;
68858;SDS011;55864;49.238;8.092;2023-08-12T05:44:27;7.50;;;4.30;;
68858;SDS011;55864;49.238;8.092;2023-08-12T05:46:27;7.38;;;4.07;;
68858;SDS011;55864;49.238;8.092;2023-08-12T05:48:28;10.35;;;4.80;;
68858;SDS011;55864;49.238;8.092;2023-08-12T05:50:28;7.65;;;4.50;;
68858;SDS011;55864;49.238;8.092;2023-08-12T05:52:29;10.30;;;5.35;;
68858;SDS011;55864;49.238;8.092;2023-08-12T05:54:29;7.70;;;4.43;;
68858;SDS011;55864;49.238;8.092;2023-08-12T05:56:30;10.98;;;4.50;;
68858;SDS011;55864;49.238;8.092;2023-08-12T05:58:32;8.95;;;4.50;;
68858;SDS011;55864;49.238;8.092;2023-08-12T06:00:32;9.65;;;4.53;;
68858;SDS011;55864;49.238;8.092;2023-08-12T06:02:33;7.80;;;4.70;;
68858;SDS011;55864;49.238;8.092;2023-08-12T06:04:33;8.73;;;4.57;;
68858;SDS011;55864;49.238;8.092;2023-08-12T06:06:34;8.60;;;4.32;;
68858;SDS011;55864;49.238;8.092;2023-08-12T06:08:34;9.35;;;4.72;;
68858;SDS011;55864;49.238;8.092;2023-08-12T06:10:35;9.25;;;4.72;;
68858;SDS011;55864;49.238;8.092;2023-08-12T06:12:35;9.65;;;4.93;;
68858;SDS011;55864;49.238;8.092;2023-08-12T06:14:37;7.88;;;4.82;;
68858;SDS011;55864;49.238;8.092;2023-08-12T06:16:38;10.00;;;4.78;;
68858;SDS011;55864;49.238;8.092;2023-08-12T06:18:39;8.07;;;4.13;;
68858;SDS011;55864;49.238;8.092;2023-08-12T06:20:39;8.32;;;4.47;;
68858;SDS011;55864;49.238;8.092;2023-08-12T06:22:40;9.48;;;4.60;;
68858;SDS011;55864;49.238;8.092;2023-08-12T06:24:41;9.10;;;4.65;;
68858;SDS011;55864;49.238;8.092;2023-08-12T06:26:41;10.32;;;4.88;;
68858;SDS011;55864;49.238;8.092;2023-08-12T06:28:42;8.93;;;4.65;;
68858;SDS011;55864;49.238;8.092;2023-08-12T06:30:45;8.10;;;4.60;;
68858;SDS011;55864;49.238;8.092;2023-08-12T06:32:46;7.68;;;4.60;;
68858;SDS011;55864;49.238;8.092;2023-08-12T06:34:47;11.43;;;4.65;;
68858;SDS011;55864;49.238;8.092;2023-08-12T06:36:47;9.38;;;4.47;;
68858;SDS011;55864;49.238;8.092;2023-08-12T06:38:48;8.73;;;4.78;;
68858;SDS011;55864;49.238;8.092;2023-08-12T06:40:48;8.18;;;4.57;;
68858;SDS011;55864;49.238;8.092;2023-08-12T06:42:49;9.77;;;4.85;;
68858;SDS011;55864;49.238;8.092;2023-08-12T06:44:54;11.07;;;4.55;;
68858;SDS011;55864;49.238;8.092;2023-08-12T06:46:56;9.95;;;4.72;;
68858;SDS011;55864;49.238;8.092;2023-08-12T06:48:57;11.70;;;4.80;;
68858;SDS011;55864;49.238;8.092;2023-08-12T06:50:58;9.02;;;4.68;;
68858;SDS011;55864;49.238;8.092;2023-08-12T06:52:58;8.55;;;5.00;;
68858;SDS011;55864;49.238;8.092;2023-08-12T06:54:59;10.60;;;4.93;;
68858;SDS011;55864;49.238;8.092;2023-08-12T06:56:59;7.90;;;4.63;;
68858;SDS011;55864;49.238;8.092;2023-08-12T06:59:00;10.27;;;4.85;;
68858;SDS011;55864;49.238;8.092;2023-08-12T07:01:00;8.45;;;4.68;;
68858;SDS011;55864;49.238;8.092;2023-08-12T07:03:02;8.43;;;4.28;;
68858;SDS011;55864;49.238;8.092;2023-08-12T07:05:03;8.73;;;4.43;;
68858;SDS011;55864;49.238;8.092;2023-08-12T07:07:05;8.10;;;4.22;;
68858;SDS011;55864;49.238;8.092;2023-08-12T07:09:05;9.40;;;4.60;;
68858;SDS011;55864;49.238;8.092;2023-08-12T07:11:05;9.02;;;5.20;;
68858;SDS011;55864;49.238;8.092;2023-08-12T07:13:06;8.23;;;4.80;;
68858;SDS011;55864;49.238;8.092;2023-08-12T07:15:07;9.05;;;5.05;;
68858;SDS011;55864;49.238;8.092;2023-08-12T07:17:08;9.52;;;4.57;;
68858;SDS011;55864;49.238;8.092;2023-08-12T07:19:10;7.97;;;4.38;;
68858;SDS011;55864;49.238;8.092;2023-08-12T07:21:11;8.02;;;4.95;;
68858;SDS011;55864;49.238;8.092;2023-08-12T07:23:11;9.23;;;5.30;;
68858;SDS011;55864;49.238;8.092;2023-08-12T07:25:12;9.00;;;5.40;;
68858;SDS011;55864;49.238;8.092;2023-08-12T07:27:12;11.60;;;5.25;;
68858;SDS011;55864;49.238;8.092;2023-08-12T07:29:13;8.88;;;4.75;;
68858;SDS011;55864;49.238;8.092;2023-08-12T07:31:14;11.40;;;5.20;;
68858;SDS011;55864;49.238;8.092;2023-08-12T07:33:14;8.70;;;5.00;;
68858;SDS011;55864;49.238;8.092;2023-08-12T07:35:16;8.82;;;4.90;;
68858;SDS011;55864;49.238;8.092;2023-08-12T07:37:17;9.25;;;4.97;;
68858;SDS011;55864;49.238;8.092;2023-08-12T07:39:17;10.23;;;4.90;;
68858;SDS011;55864;49.238;8.092;2023-08-12T07:41:18;12.52;;;5.47;;
68858;SDS011;55864;49.238;8.092;2023-08-12T07:43:18;10.65;;;5.38;;
68858;SDS011;55864;49.238;8.092;2023-08-12T07:45:19;9.48;;;5.00;;
68858;SDS011;55864;49.238;8.092;2023-08-12T07:47:19;12.43;;;7.38;;
68858;SDS011;55864;49.238;8.092;2023-08-12T07:49:20;8.55;;;5.25;;
68858;SDS011;55864;49.238;8.092;2023-08-12T07:51:22;7.85;;;4.65;;
68858;SDS011;55864;49.238;8.092;2023-08-12T07:53:23;8.40;;;4.63;;
68858;SDS011;55864;49.238;8.092;2023-08-12T07:55:23;9.60;;;5.35;;
68858;SDS011;55864;49.238;8.092;2023-08-12T07:57:24;10.45;;;5.20;;
68858;SDS011;55864;49.238;8.092;2023-08-12T07:59:24;10.60;;;5.63;;
68858;SDS011;55864;49.238;8.092;2023-08-12T08:01:25;8.32;;;4.65;;
68858;SDS011;55864;49.238;8.092;2023-08-12T08:03:25;8.63;;;4.85;;
68858;SDS011;55864;49.238;8.092;2023-08-12T08:05:26;11.18;;;5.38;;
68858;SDS011;55864;49.238;8.092;2023-08-12T08:07:28;11.63;;;5.57;;
68858;SDS011;55864;49.238;8.092;2023-08-12T08:09:28;8.55;;;4.68;;
68858;SDS011;55864;49.238;8.092;2023-08-12T08:11:29;9.73;;;4.85;;
68858;SDS011;55864;49.238;8.092;2023-08-12T08:13:30;8.13;;;4.63;;
68858;SDS011;55864;49.238;8.092;2023-08-12T08:15:31;9.45;;;4.88;;
68858;SDS011;55864;49.238;8.092;2023-08-12T08:17:31;10.35;;;4.97;;
68858;SDS011;55864;49.238;8.092;2023-08-12T08:19:32;8.63;;;5.22;;
68858;SDS011;55864;49.238;8.092;2023-08-12T08:21:33;10.63;;;5.28;;
68858;SDS011;55864;49.238;8.092;2023-08-12T08:23:34;8.85;;;4.82;;
68858;SDS011;55864;49.238;8.092;2023-08-12T08:25:35;9.25;;;5.10;;
68858;SDS011;55864;49.238;8.092;2023-08-12T08:27:35;10.65;;;5.10;;
68858;SDS011;55864;49.238;8.092;2023-08-12T08:29:36;9.23;;;4.90;;
68858;SDS011;55864;49.238;8.092;2023-08-12T08:31:36;10.57;;;5.07;;
68858;SDS011;55864;49.238;8.092;2023-08-12T08:33:37;10.25;;;4.95;;
68858;SDS011;55864;49.238;8.092;2023-08-12T08:35:38;8.38;;;5.05;;
68858;SDS011;55864;49.238;8.092;2023-08-12T08:37:38;8.32;;;4.30;;
68858;SDS011;55864;49.238;8.092;2023-08-12T08:39:42;9.50;;;4.75;;
68858;SDS011;55864;49.238;8.092;2023-08-12T08:41:42;11.07;;;5.20;;
68858;SDS011;55864;49.238;8.092;2023-08-12T08:43:47;9.30;;;4.80;;
68858;SDS011;55864;49.238;8.092;2023-08-12T08:45:49;8.57;;;4.82;;
68858;SDS011;55864;49.238;8.092;2023-08-12T08:47:52;9.00;;;4.57;;
68858;SDS011;55864;49.238;8.092;2023-08-12T08:49:53;9.25;;;4.93;;
68858;SDS011;55864;49.238;8.092;2023-08-12T08:51:55;9.77;;;5.07;;
68858;SDS011;55864;49.238;8.092;2023-08-12T08:53:56;10.05;;;4.65;;
68858;SDS011;55864;49.238;8.092;2023-08-12T08:55:59;8.77;;;4.68;;
68858;SDS011;55864;49.238;8.092;2023-08-12T08:58:00;9.40;;;4.63;;
68858;SDS011;55864;49.238;8.092;2023-08-12T09:00:01;8.98;;;4.68;;
68858;SDS011;55864;49.238;8.092;2023-08-12T09:02:02;9.52;;;4.63;;
68858;SDS011;55864;49.238;8.092;2023-08-12T09:04:04;7.57;;;4.30;;
68858;SDS011;55864;49.238;8.092;2023-08-12T09:06:05;9.70;;;4.47;;
68858;SDS011;55864;49.238;8.092;2023-08-12T09:08:06;8.10;;;4.55;;
68858;SDS011;55864;49.238;8.092;2023-08-12T09:10:08;10.82;;;4.70;;
68858;SDS011;55864;49.238;8.092;2023-08-12T09:12:11;11.95;;;4.63;;
68858;SDS011;55864;49.238;8.092;2023-08-12T09:14:14;9.20;;;4.70;;
68858;SDS011;55864;49.238;8.092;2023-08-12T09:16:15;8.95;;;4.75;;
68858;SDS011;55864;49.238;8.092;2023-08-12T09:18:16;10.25;;;4.80;;
68858;SDS011;55864;49.238;8.092;2023-08-12T09:20:17;8.77;;;4.63;;
68858;SDS011;55864;49.238;8.092;2023-08-12T09:22:18;9.50;;;4.43;;
68858;SDS011;55864;49.238;8.092;2023-08-12T09:24:23;10.00;;;4.65;;
68858;SDS011;55864;49.238;8.092;2023-08-12T09:26:24;9.13;;;4.25;;
68858;SDS011;55864;49.238;8.092;2023-08-12T09:28:26;8.95;;;4.38;;
68858;SDS011;55864;49.238;8.092;2023-08-12T09:30:28;8.37;;;4.50;;
68858;SDS011;55864;49.238;8.092;2023-08-12T09:32:29;8.55;;;4.93;;
68858;SDS011;55864;49.238;8.092;2023-08-12T09:34:30;8.88;;;4.20;;
68858;SDS011;55864;49.238;8.092;2023-08-12T09:36:30;9.65;;;4.35;;
68858;SDS011;55864;49.238;8.092;2023-08-12T09:38:31;8.77;;;4.22;;
68858;SDS011;55864;49.238;8.092;2023-08-12T09:40:32;9.05;;;4.53;;
68858;SDS011;55864;49.238;8.092;2023-08-12T09:42:33;10.25;;;4.25;;
68858;SDS011;55864;49.238;8.092;2023-08-12T09:44:35;8.32;;;4.30;;
68858;SDS011;55864;49.238;8.092;2023-08-12T09:46:36;10.30;;;4.93;;
68858;SDS011;55864;49.238;8.092;2023-08-12T09:48:36;9.07;;;4.43;;
68858;SDS011;55864;49.238;8.092;2023-08-12T09:50:37;13.75;;;5.03;;
68858;SDS011;55864;49.238;8.092;2023-08-12T09:52:37;41.13;;;6.75;;
68858;SDS011;55864;49.238;8.092;2023-08-12T09:54:39;10.75;;;4.95;;
68858;SDS011;55864;49.238;8.092;2023-08-12T09:56:41;9.10;;;4.28;;
68858;SDS011;55864;49.238;8.092;2023-08-12T09:58:43;10.63;;;4.80;;
68858;SDS011;55864;49.238;8.092;2023-08-12T10:00:45;10.13;;;5.20;;
68858;SDS011;55864;49.238;8.092;2023-08-12T10:02:46;8.33;;;4.63;;
68858;SDS011;55864;49.238;8.092;2023-08-12T10:04:48;9.23;;;4.75;;
68858;SDS011;55864;49.238;8.092;2023-08-12T10:06:53;8.32;;;4.57;;
68858;SDS011;55864;49.238;8.092;2023-08-12T10:08:54;9.90;;;5.00;;
68858;SDS011;55864;49.238;8.092;2023-08-12T10:10:56;8.68;;;4.82;;
68858;SDS011;55864;49.238;8.092;2023-08-12T10:12:57;18.92;;;5.63;;
68858;SDS011;55864;49.238;8.092;2023-08-12T10:14:58;13.77;;;5.30;;
68858;SDS011;55864;49.238;8.092;2023-08-12T10:17:02;10.32;;;5.07;;
68858;SDS011;55864;49.238;8.092;2023-08-12T10:19:03;8.65;;;4.68;;
68858;SDS011;55864;49.238;8.092;2023-08-12T10:21:05;8.38;;;4.82;;
68858;SDS011;55864;49.238;8.092;2023-08-12T10:23:08;9.00;;;4.43;;
68858;SDS011;55864;49.238;8.092;2023-08-12T10:25:15;9.48;;;5.15;;
68858;SDS011;55864;49.238;8.092;2023-08-12T10:27:19;9.80;;;4.53;;
68858;SDS011;55864;49.238;8.092;2023-08-12T10:29:20;8.70;;;4.80;;
68858;SDS011;55864;49.238;8.092;2023-08-12T10:31:24;8.55;;;4.55;;
68858;SDS011;55864;49.238;8.092;2023-08-12T10:33:28;9.25;;;4.90;;
68858;SDS011;55864;49.238;8.092;2023-08-12T10:35:41;8.35;;;4.63;;
68858;SDS011;55864;49.238;8.092;2023-08-12T10:37:43;9.10;;;4.90;;
68858;SDS011;55864;49.238;8.092;2023-08-12T10:39:49;9.00;;;4.85;;
68858;SDS011;55864;49.238;8.092;2023-08-12T10:41:54;9.35;;;5.10;;
68858;SDS011;55864;49.238;8.092;2023-08-12T10:43:56;9.18;;;4.80;;
68858;SDS011;55864;49.238;8.092;2023-08-12T10:45:59;8.63;;;4.93;;
68858;SDS011;55864;49.238;8.092;2023-08-12T10:48:09;12.38;;;5.68;;
68858;SDS011;55864;49.238;8.092;2023-08-12T10:50:17;14.23;;;6.38;;
68858;SDS011;55864;49.238;8.092;2023-08-12T10:52:28;10.48;;;4.72;;
68858;SDS011;55864;49.238;8.092;2023-08-12T10:54:29;12.02;;;4.80;;
68858;SDS011;55864;49.238;8.092;2023-08-12T10:56:30;13.80;;;5.03;;
68858;SDS011;55864;49.238;8.092;2023-08-12T10:58:33;12.18;;;4.30;;
68858;SDS011;55864;49.238;8.092;2023-08-12T11:00:34;10.07;;;4.35;;
68858;SDS011;55864;49.238;8.092;2023-08-12T11:02:35;9.65;;;4.53;;
68858;SDS011;55864;49.238;8.092;2023-08-12T11:04:37;9.57;;;4.78;;
68858;SDS011;55864;49.238;8.092;2023-08-12T11:06:43;10.88;;;5.43;;
68858;SDS011;55864;49.238;8.092;2023-08-12T11:08:46;10.68;;;4.78;;
68858;SDS011;55864;49.238;8.092;2023-08-12T11:10:48;11.07;;;5.20;;
68858;SDS011;55864;49.238;8.092;2023-08-12T11:12:52;14.73;;;5.22;;
68858;SDS011;55864;49.238;8.092;2023-08-12T11:14:54;11.15;;;5.20;;
68858;SDS011;55864;49.238;8.092;2023-08-12T11:16:57;8.43;;;4.68;;
68858;SDS011;55864;49.238;8.092;2023-08-12T11:18:57;14.48;;;4.80;;
68858;SDS011;55864;49.238;8.092;2023-08-12T11:20:59;11.63;;;4.93;;
68858;SDS011;55864;49.238;8.092;2023-08-12T11:23:02;8.98;;;4.45;;
68858;SDS011;55864;49.238;8.092;2023-08-12T11:25:05;10.02;;;5.07;;
68858;SDS011;55864;49.238;8.092;2023-08-12T11:27:06;9.07;;;4.63;;
68858;SDS011;55864;49.238;8.092;2023-08-12T11:29:09;8.30;;;4.30;;
68858;SDS011;55864;49.238;8.092;2023-08-12T11:31:11;7.63;;;3.70;;
68858;SDS011;55864;49.238;8.092;2023-08-12T11:33:11;7.00;;;3.47;;
68858;SDS011;55864;49.238;8.092;2023-08-12T11:35:12;7.15;;;3.15;;
68858;SDS011;55864;49.238;8.092;2023-08-12T11:37:14;6.80;;;2.90;;
68858;SDS011;55864;49.238;8.092;2023-08-12T11:39:16;7.10;;;3.03;;
68858;SDS011;55864;49.238;8.092;2023-08-12T11:41:17;6.72;;;3.17;;
68858;SDS011;55864;49.238;8.092;2023-08-12T11:43:20;6.75;;;2.80;;
68858;SDS011;55864;49.238;8.092;2023-08-12T11:45:22;6.63;;;2.40;;
68858;SDS011;55864;49.238;8.092;2023-08-12T11:47:23;6.40;;;2.40;;
68858;SDS011;55864;49.238;8.092;2023-08-12T11:49:24;5.97;;;2.78;;
68858;SDS011;55864;49.238;8.092;2023-08-12T11:51:24;8.00;;;2.97;;
68858;SDS011;55864;49.238;8.092;2023-08-12T11:53:25;7.88;;;3.58;;
68858;SDS011;55864;49.238;8.092;2023-08-12T11:55:28;8.57;;;3.15;;
68858;SDS011;55864;49.238;8.092;2023-08-12T11:59:30;7.03;;;3.53;;
68858;SDS011;55864;49.238;8.092;2023-08-12T12:01:31;6.35;;;3.03;;
68858;SDS011;55864;49.238;8.092;2023-08-12T12:03:31;6.13;;;2.65;;
68858;SDS011;55864;49.238;8.092;2023-08-12T12:05:32;6.88;;;2.70;;
68858;SDS011;55864;49.238;8.092;2023-08-12T12:07:32;5.63;;;2.72;;
68858;SDS011;55864;49.238;8.092;2023-08-12T12:09:33;5.78;;;2.20;;
68858;SDS011;55864;49.238;8.092;2023-08-12T12:11:35;6.70;;;2.67;;
68858;SDS011;55864;49.238;8.092;2023-08-12T12:13:36;6.28;;;2.67;;